Tiempo atmosférico en la estación meteorológica de Huelva, Ronda Este, Huelva (19 m.)



Fecha
DESCASC
Temp. máxima en grados centígrados (hora)
DESCASC
Temp. mínima en grados centígrados (hora)
DESCASC
Temp. media en grados centígrados
DESCASC
Racha de viento máxima en m/sg (hora)
DESCASC
Velocidad máxima media en intervalos de 10 minutos(hora)
DESCASC
Precipitaciones diarias en mm
DESCASC
Precipitaciones de 00:00 a 06:00 en mm
DESCASC
Precipitaciones de 06:00 a 12:00 en mm
DESCASC
Precipitaciones de 12:00 a 18:00 en mm
DESCASC
Precipitaciones de 18:00 a 24:00 en mm
DESCASC
16-06-2019 26.8 (14:30) 15.5 (07:30) 21.1 10.83 (18:00) 6.11 (16:30) 0 0 0 0 0
15-06-2019 26.1 (14:40) 13.2 (07:40) 19.7 11.67 (16:40) 8.61 (18:40) 0 0 0 0 0
14-06-2019 22.1 (16:30) 12.7 (07:30) 17.4 13.89 (18:50) 9.72 (18:30) 0 0 0 0 0
13-06-2019 27.7 (16:10) 12.9 (00:00) 20.3 10.28 (08:30) 7.5 (19:10) 0 0 0 0 0
12-06-2019 27.7 (16:30) 15 (00:00) 21.4 11.39 (19:50) 7.78 (19:50) 0 0 0 0 0
11-06-2019 29.4 (16:20) 14.5 (00:00) 21.9 13.61 (03:30) 8.06 (17:20) 0 0 0 0 0
10-06-2019 27 (14:20) 14.6 (00:00) 20.8 15.56 (18:30) 10.83 (18:30) 0 0 0 0 0
09-06-2019 28.3 (15:20) 13.6 (00:00) 20.9 11.67 (16:10) 8.61 (17:30) 0 0 0 0 0
08-06-2019 30.4 (15:00) 14.2 (00:00) 22.3 10 (18:30) 7.5 (16:50) 0 0 0 0 0
07-06-2019 28 (18:00) 13.7 (00:00) 20.8 10.83 (11:30) 6.11 (00:20) 0 0 0 0 0
06-06-2019 24.1 (13:30) 12.9 (00:00) 18.5 14.44 (18:30) 9.17 (19:20) 0 0 0 0 0
05-06-2019 26.8 (17:20) 13.8 (00:00) 20.3 11.67 (14:30) 7.78 (17:30) 0 0 0 0 0
04-06-2019 28.7 (14:10) 16.1 (00:00) 22.4 13.33 (20:10) 8.89 (17:00) 0 0 0 0 0
03-06-2019 32.8 (13:20) 15.4 (00:00) 24.1 10 (17:50) 7.22 (17:50) 0 0 0 0 0
02-06-2019 33.6 (14:10) 15.4 (00:00) 24.5 9.44 (18:40) 6.67 (17:00) 0 0 0 0 0
01-06-2019 33.6 (14:30) 15.4 (00:00) 24.5 8.89 (17:10) 6.11 (17:10) 0 0 0 0 0
31-05-2019 33.3 (16:00) 16.6 (00:00) 24.9 10.83 (11:50) 5.56 (16:40) 0 0 0 0 0
30-05-2019 33.3 (16:00) 15.3 (00:00) 24.3 9.72 (13:00) 6.11 (19:10) 0 0 0 0 0
29-05-2019 32.9 (16:30) 16.5 (00:00) 24.7 13.61 (10:30) 7.5 (10:30) 0 0 0 0 0
28-05-2019 33.1 (14:00) 15.8 (00:00) 24.4 11.11 (18:20) 7.22 (18:40) 0 0 0 0 0
27-05-2019 32.7 (13:40) 13.7 (00:00) 23.2 12.5 (17:10) 8.06 (16:50) 0 0 0 0 0
26-05-2019 29.1 (15:30) 14.1 (00:00) 21.6 10 (17:40) 6.94 (19:20) 0 0 0 0 0
25-05-2019 29 (15:30) 16.8 (00:00) 22.9 8.89 (18:40) 6.11 (16:40) 0 0 0 0 0
24-05-2019 31.3 (18:50) 13.8 (00:00) 22.5 11.39 (13:30) 5.83 (14:20) 0 0 0 0 0
23-05-2019 32.5 (15:10) 17 (00:00) 24.8 10.83 (17:50) 7.78 (17:40) 0 0 0 0 0
22-05-2019 27.5 (15:50) 14.3 (00:00) 20.9 8.61 (01:50) 5.56 (17:10) 0 0 0 0 0

Gráficas

Temp. máximas Temp. mínimas Temp. medias Precipitaciones Rachas de viento máximas Velocidades máximas media en intervalos de 10 minutos

Datos horarios

Fecha y hora oficial Temperatura (ºC) Velocidad del viento (km/h) Dirección del viento Racha (km/h) Dirección de racha Precipitación (mm) Presión (hPa) Tendencia (hPa) Humedad (%)
2019-06-20 23:00:00 22.5 18 Noroeste 28 Noroeste 0 1012.6 1.3 49
2019-06-20 22:00:00 24 18 Noroeste 29 Noroeste 0 1011.9 0.6 45
2019-06-20 21:00:00 26.8 15 Noroeste 25 Oeste 0 1011.4 -0.5 36
2019-06-20 20:00:00 25.2 18 Sudoeste 28 Sudoeste 0 1011.3 -1.1 51
2019-06-20 19:00:00 25.3 20 Sudoeste 37 Sudoeste 0 1011.3 -1.5 50
2019-06-20 18:00:00 25.3 26 Sudoeste 44 Sudoeste 0 1011.9 -1.2 47
2019-06-20 17:00:00 24.9 29 Sudoeste 46 Sudoeste 0 1012.4 -1.1 47
2019-06-20 16:00:00 24.5 29 Sudoeste 44 Sudoeste 0 1012.8 -0.9 51
2019-06-20 15:00:00 24.9 30 Sudoeste 43 Sudoeste 0 1013.1 -0.6 49
2019-06-20 14:00:00 25 24 Sudoeste 35 Sudoeste 0 1013.5 -0.2 51
2019-06-20 13:00:00 24.1 20 Sudoeste 27 Sudoeste 0 1013.7 -0.1 56
2019-06-20 12:00:00 23.3 15 Sudoeste 28 Oeste 0 1013.7 0 58
2019-06-20 11:00:00 22.3 14 Oeste 21 Oeste 0 1013.7 0.2 63
2019-06-20 10:00:00 20.2 10 Noroeste 17 Noroeste 0 1013.8 0.3 72
2019-06-20 09:00:00 18.3 10 Noroeste 19 Oeste 0 1013.7 0.3 81
2019-06-20 08:00:00 16.7 9 Oeste 15 Oeste 0 1013.5 0.1 86
2019-06-20 07:00:00 15.8 10 Oeste 14 Oeste 0 1013.5 0 89
2019-06-20 06:00:00 16 7 Noroeste 12 Noroeste 0 1013.4 -0.4 86
2019-06-20 05:00:00 16.7 5 Noroeste 13 Noroeste 0 1013.4 -0.6 82
2019-06-20 04:00:00 17.5 10 Noroeste 16 Noroeste 0 1013.5 -0.4 76
2019-06-20 03:00:00 18.5 10 Noroeste 20 Noroeste 0 1013.8 0.2 69
2019-06-20 02:00:00 18.7 8 Noroeste 19 Oeste 0 1014 0.8 70
2019-06-20 01:00:00 19.8 13 Noroeste 26 Noroeste 0 1013.9 1.2 68
2019-06-20 00:00:00 20.4 13 Oeste 22 Oeste 0 1013.6 0.9 74
2019-06-19 23:00:00 20.8 17 Oeste 31 Sudoeste 0 1013.2 0.6 77
2019-06-19 22:00:00 20.9 21 Oeste 37 Oeste 0 1012.7 -0.3 78
2019-06-19 21:00:00 22.3 28 Oeste 44 Oeste 0 1012.7 -0.8 69
2019-06-19 20:00:00 23.4 30 Oeste 40 Sudoeste 0 1012.6 -1 64
2019-06-19 19:00:00 23.9 21 Sudoeste 39 Sudoeste 0 1013 -1.2 67
2019-06-19 18:00:00 23.8 27 Sudoeste 42 Sudoeste 0 1013.5 -1.1 65
2019-06-19 17:00:00 24.8 26 Sudoeste 36 Sudoeste 0 1013.6 -1.7 57
2019-06-19 16:00:00 25.4 24 Sudoeste 33 Sudoeste 0 1014.2 -1.4 55
2019-06-19 15:00:00 25.5 19 Sudoeste 30 Sudoeste 0 1014.6 -0.9 57
2019-06-19 14:00:00 24.9 17 Sudoeste 30 Sudoeste 0 1015.3 0 58
2019-06-19 13:00:00 24.5 16 Sudoeste 26 Sudoeste 0 1015.6 0.1 59
2019-06-19 12:00:00 24.3 10 Sudoeste 21 Sur 0 1015.5 0.2 62
2019-06-19 11:00:00 22.7 5 Sudoeste 12 Oeste 0 1015.3 0.4 70
2019-06-19 10:00:00 19.8 5 Sudoeste 9 Sudoeste 0 1015.5 0.8 82
2019-06-19 09:00:00 18 4 Sur 8 Sur 0 1015.3 0.8 96
2019-06-19 08:00:00 16.6 5 Sudeste 7 Sudeste 0 1014.9 0.5 97
2019-06-19 07:00:00 16.3 4 Oeste 5 Oeste 0 1014.7 0.3 95
2019-06-19 06:00:00 16.6 0 Calma 3 Nordeste 0 1014.5 0 96
2019-06-19 05:00:00 17 0 Calma 4 Sudoeste 0 1014.4 -0.4 96
2019-06-19 04:00:00 16.8 3 Sur 9 Sur 0 1014.4 -0.6 94
2019-06-19 03:00:00 17.5 6 Sur 11 Sur 0 1014.5 -0.4 96
2019-06-19 02:00:00 18.1 6 Sudoeste 16 Sudoeste 0 1014.8 0.2 93
2019-06-19 01:00:00 18.5 13 Sudoeste 26 Sudoeste 0 1015 0.7 93
2019-06-19 00:00:00 18.7 14 Sudoeste 27 Sudoeste 0 1014.9 0.6 92
2019-06-18 23:00:00 19 17 Sudoeste 32 Sudoeste 0 1014.6 0.3 90
2019-06-18 22:00:00 19.6 18 Sudoeste 32 Sudoeste 0 1014.3 -0.1 87
2019-06-18 21:00:00 20.9 18 Sudoeste 32 Sudoeste 0 1014.3 -0.3 79
2019-06-18 20:00:00 21.9 22 Sudoeste 33 Oeste 0 1014.3 -0.3 74
2019-06-18 19:00:00 23 21 Sudoeste 35 Oeste 0 1014.4 -0.5 67
2019-06-18 18:00:00 23.7 19 Sudoeste 36 Oeste 0 1014.6 -0.6 63
2019-06-18 17:00:00 24 17 Sudoeste 33 Sudoeste 0 1014.6 -1 62
2019-06-18 16:00:00 23.3 20 Sudoeste 34 Sudoeste 0 1014.9 -0.5 64
2019-06-18 15:00:00 22.9 18 Sudoeste 31 Sur 0 1015.2 0 65
2019-06-18 14:00:00 22.1 17 Sur 27 Sur 0 1015.6 0.5 67
2019-06-18 13:00:00 22.3 17 Sur 27 Sur 0 1015.4 0.2 67
2019-06-18 12:00:00 21.1 12 Sur 22 Sur 0 1015.2 0.3 70
2019-06-18 11:00:00 18.5 6 Sudeste 10 Sur 0 1015.1 0.9 77
2019-06-18 10:00:00 15.4 4 Este 12 Este 0 1015.2 1.7 89
2019-06-18 09:00:00 13.2 4 Este 9 Nordeste 0 1014.9 1.8 97
2019-06-18 08:00:00 12.6 6 Nordeste 9 Nordeste 0 1014.2 1.3 90
2019-06-18 07:00:00 11.7 3 Nordeste 8 Nordeste 0 1013.5 0.7 91
2019-06-18 06:00:00 12.7 5 Nordeste 8 Nordeste 0 1013.1 -0.1 93
2019-06-18 05:00:00 13.7 8 Noroeste 10 Noroeste 0 1012.9 -0.6 93
2019-06-18 04:00:00 14.7 4 Noroeste 6 Noroeste 0 1012.8 -0.8 92
2019-06-18 03:00:00 15.4 2 Oeste 17 Oeste 0 1013.2 -0.3 88
2019-06-18 02:00:00 16.3 12 Oeste 23 Sudoeste 0 1013.5 0.5 86
2019-06-18 01:00:00 16.5 12 Sudoeste 20 Sudoeste 0 1013.6 0.9 87
2019-06-18 00:00:00 16.3 9 Sudoeste 18 Sudoeste 0 1013.5 0.8 87
2019-06-17 23:00:00 16.5 6 Sur 15 Sudoeste 0 1013 0 78
2019-06-17 22:00:00 18.3 9 Sudoeste 18 Sudoeste 0 1012.7 -0.3 62
2019-06-17 21:00:00 20.5 12 Sudoeste 21 Sudoeste 0 1012.7 -0.7 63
2019-06-17 20:00:00 22.4 14 Sudoeste 27 Oeste 0 1013 -0.9 52
2019-06-17 19:00:00 23.9 17 Sudoeste 28 Sudoeste 0 1013 -1.3 38
2019-06-17 18:00:00 24 19 Sudoeste 29 Sudoeste 0 1013.4 -1.3 47
2019-06-17 17:00:00 24.3 20 Sudoeste 30 Sudoeste 0 1013.9 -1.7 49
2019-06-17 16:00:00 24.7 21 Sur 31 Sur 0 1014.3 -1.1 50
2019-06-17 15:00:00 24 20 Sur 30 Sur 0 1014.7 -0.5 50
2019-06-17 14:00:00 23.6 22 Sur 32 Sur 0 1015.6 0.1 49
2019-06-17 13:00:00 24.5 19 Sur 30 Sur 0 1015.4 -0.5 50
2019-06-17 12:00:00 23.5 15 Sur 24 Sudoeste 0 1015.2 -0.5 53
2019-06-17 11:00:00 21.9 10 Sur 21 Sur 0 1015.5 0.1 56
2019-06-17 10:00:00 18.7 6 Sudeste 12 Este 0 1015.9 0.7 79
2019-06-17 09:00:00 14.6 7 Nordeste 12 Este 0 1015.7 0.7 86
2019-06-17 08:00:00 12.4 5 Nordeste 14 Nordeste 0 1015.4 0.2 77
2019-06-17 07:00:00 11.8 8 Nordeste 14 Nordeste 0 1015.2 -0.2 77
2019-06-17 06:00:00 12.6 5 Norte 9 Nordeste 0 1015 -1 75
2019-06-17 05:00:00 13.3 6 Nordeste 8 Nordeste 0 1015.2 -0.8 73
2019-06-17 04:00:00 14.2 4 Nordeste 8 Nordeste 0 1015.4 -0.8 77
2019-06-17 03:00:00 14.6 3 Sudeste 5 Noroeste 0 1016 -0.3 80
2019-06-17 02:00:00 16.1 0 Calma 5 Sur 0 1016 0.2 79
2019-06-17 01:00:00 16.7 2 Sur 6 Sudeste 0 1016.2 1 77
2019-06-17 00:00:00 17.4 5 Sudeste 9 Sur 0 1016.3 1.3 74
2019-06-16 23:00:00 18 8 Sur 11 Sur 0 1015.8 0.7 69
2019-06-16 22:00:00 20.3 8 Sudoeste 15 Sudoeste 0 1015.2 0.2 55
2019-06-16 21:00:00 22.5 10 Sur 22 Sur 0 1015 -0.4 49
2019-06-16 20:00:00 23.5 13 Sudoeste 26 Sudoeste 0 1015.1 -0.1 42
2019-06-16 19:00:00 23.9 18 Sudoeste 31 Sudoeste 0 1015 0 42
2019-06-16 18:00:00 23.9 22 Sudoeste 39 Sudoeste 0 1015.4 0.2 45
2019-06-16 17:00:00 25 18 Sur 31 Sur 0 1015.2 -0.3 43
2019-06-16 16:00:00 26 17 Sur 28 Sur 0 1015 -0.6 43
2019-06-16 15:00:00 25.9 18 Sur 26 Sudoeste 0 1015.2 -0.3 42
2019-06-16 14:00:00 26 11 Sur 26 Sur 0 1015.5 0.3 43
2019-06-16 13:00:00 25.2 15 Sur 27 Sur 0 1015.6 0.3 45
2019-06-16 12:00:00 22.1 5 Este 10 Sudeste 0 1015.5 0.8 49
2019-06-16 11:00:00 20.5 5 Este 13 Norte 0 1015.2 1 52
2019-06-16 10:00:00 18.9 8 Norte 16 Norte 0 1015.3 1.3 54
2019-06-16 09:00:00 17.2 7 Norte 12 Norte 0 1014.7 0.9 60
2019-06-16 08:00:00 15.9 4 Nordeste 13 Norte 0 1014.2 0.5 64
2019-06-16 07:00:00 15.7 7 Norte 18 Norte 0 1014 0.1 64
2019-06-16 06:00:00 16.7 9 Norte 18 Norte 0 1013.8 -0.4 62
2019-06-16 05:00:00 17.2 5 Noroeste 28 Noroeste 0 1013.7 -0.8 61
2019-06-16 04:00:00 17.8 13 Noroeste 29 Noroeste 0 1013.9 -1.1 59
2019-06-16 03:00:00 18.4 13 Noroeste 27 Oeste 0 1014.2 -1 56
2019-06-16 02:00:00 18.8 15 Noroeste 23 Noroeste 0 1014.5 -0.7 54
2019-06-16 01:00:00 20.1 9 Noroeste 23 Oeste 0 1015 0.3 49
2019-06-16 00:00:00 19.2 4 Noroeste 13 Oeste 0 1015.2 0.6 57
2019-06-15 23:00:00 20.3 11 Oeste 23 Oeste 0 1015.2 0.6 54
2019-06-15 22:00:00 21.1 15 Oeste 28 Oeste 0 1014.7 -0.3 52
2019-06-15 21:00:00 22.4 20 Oeste 34 Oeste 0 1014.6 -0.9 46
2019-06-15 20:00:00 23.5 24 Oeste 39 Oeste 0 1014.6 -1.5 42
2019-06-15 19:00:00 24 27 Oeste 40 Oeste 0 1015 -1.6 39
2019-06-15 18:00:00 24.1 26 Sudoeste 39 Oeste 0 1015.5 -1.3 37
2019-06-15 17:00:00 23.9 25 Sudoeste 42 Sudoeste 0 1016.1 -1.3 43
2019-06-15 16:00:00 23.9 23 Sudoeste 36 Sudoeste 0 1016.6 -1.3 44
2019-06-15 15:00:00 26 17 Sudoeste 28 Sudoeste 0 1016.8 -1.3 34
2019-06-15 14:00:00 25.6 13 Oeste 23 Oeste 0 1017.4 -0.9 35
2019-06-15 13:00:00 24.9 11 Noroeste 20 Norte 0 1017.9 -0.7 32
2019-06-15 12:00:00 22.9 8 Noroeste 20 Noroeste 0 1018.1 -0.4 38
2019-06-15 11:00:00 20.9 10 Norte 15 Norte 0 1018.3 0.2 46
2019-06-15 10:00:00 19.1 8 Norte 19 Norte 0 1018.6 0.8 55
2019-06-15 09:00:00 16.4 8 Norte 13 Nordeste 0 1018.5 1.1 66
2019-06-15 08:00:00 14 4 Nordeste 17 Norte 0 1018.1 0.7 75
2019-06-15 07:00:00 13.5 4 Norte 19 Oeste 0 1017.8 0.4 78
2019-06-15 06:00:00 14.1 7 Noroeste 23 Norte 0 1017.4 -0.3 75
2019-06-15 05:00:00 14.6 12 Noroeste 26 Norte 0 1017.4 -0.5 71
2019-06-15 04:00:00 14.9 5 Noroeste 23 Noroeste 0 1017.4 -0.5 66
2019-06-15 03:00:00 15.5 11 Noroeste 26 Noroeste 0 1017.7 0.1 56
2019-06-15 02:00:00 16.5 12 Noroeste 24 Noroeste 0 1017.9 1 50
2019-06-15 01:00:00 17 11 Noroeste 23 Noroeste 0 1017.9 2 50
2019-06-15 00:00:00 17.5 15 Noroeste 22 Noroeste 0 1017.6 2 51
2019-06-14 23:00:00 17.5 9 Noroeste 18 Sudoeste 0 1016.9 1.5 62
2019-06-14 22:00:00 18.1 15 Oeste 33 Sudoeste 0 1015.9 0.7 67
2019-06-14 21:00:00 18.8 27 Sudoeste 45 Oeste 0 1015.6 0.4 61
2019-06-14 20:00:00 19.9 28 Sudoeste 50 Oeste 0 1015.4 0.3 54
2019-06-14 19:00:00 20.6 30 Sudoeste 50 Oeste 0 1015.2 -0.2 52
2019-06-14 18:00:00 21.4 33 Sudoeste 47 Sudoeste 0 1015.2 -0.4 47
2019-06-14 17:00:00 21.7 29 Sudoeste 45 Oeste 0 1015.1 -0.7 47
2019-06-14 16:00:00 21.4 31 Sudoeste 46 Sudoeste 0 1015.4 -0.3 51
2019-06-14 15:00:00 20.7 30 Sudoeste 41 Sudoeste 0 1015.6 0.2 52
2019-06-14 14:00:00 21.5 26 Sudoeste 40 Sudoeste 0 1015.8 0.6 45
2019-06-14 13:00:00 21.2 16 Sudoeste 32 Noroeste 0 1015.7 1 47
2019-06-14 12:00:00 20.5 18 Noroeste 30 Oeste 0 1015.4 1.8 43
2019-06-14 11:00:00 19.4 17 Noroeste 28 Oeste 0 1015.2 2.3 46
2019-06-14 10:00:00 17.4 15 Noroeste 27 Noroeste 0 1014.7 2.6 57
2019-06-14 09:00:00 15.3 17 Noroeste 30 Noroeste 0 1013.6 1.9 66
2019-06-14 08:00:00 13.4 16 Oeste 22 Noroeste 0 1012.9 1.9 73
2019-06-14 07:00:00 12.9 14 Noroeste 23 Noroeste 0 1012.1 1.4 73
2019-06-14 06:00:00 13.8 7 Noroeste 23 Oeste 0 1011.7 0.9 66
2019-06-14 05:00:00 14.7 12 Noroeste 30 Noroeste 0 1011 0.2 60
2019-06-14 04:00:00 15.5 13 Noroeste 27 Noroeste 0 1010.7 0 56
2019-06-14 03:00:00 16.4 14 Noroeste 26 Noroeste 0 1010.8 0.5 53
2019-06-14 02:00:00 16.7 12 Noroeste 23 Noroeste 0 1010.8 1.7 55
2019-06-14 01:00:00 17.7 14 Noroeste 24 Noroeste 0 1010.7 2.2 53
2019-06-14 00:00:00 19.4 17 Noroeste 28 Noroeste 0 1010.3 1.9 46
2019-06-13 23:00:00 20.1 12 Oeste 20 Noroeste 0 1009.1 1.3 44
2019-06-13 22:00:00 21 14 Oeste 31 Oeste 0 1008.5 1 37
2019-06-13 21:00:00 22.2 24 Sudoeste 35 Oeste 0 1008.4 0.9 42
2019-06-13 20:00:00 23.3 24 Sudoeste 36 Sudoeste 0 1007.8 0.1 37
2019-06-13 19:00:00 23.6 23 Sudoeste 36 Sudoeste 0 1007.5 -0.3 35
2019-06-13 18:00:00 23.1 18 Sudoeste 33 Sudoeste 0 1007.5 -0.6 38
2019-06-13 17:00:00 26.2 25 Sudoeste 35 Sudoeste 0 1007.7 -0.8 29
2019-06-13 16:00:00 27.6 21 Sudoeste 32 Sudoeste 0 1007.8 -0.9 23
2019-06-13 15:00:00 27 15 Sudoeste 30 Sudoeste 0 1008.1 -0.9 23
2019-06-13 14:00:00 26.3 11 Oeste 24 Noroeste 0 1008.5 -0.7 24
2019-06-13 13:00:00 24.7 12 Noroeste 31 Noroeste 0 1008.7 -0.6 28
2019-06-13 12:00:00 22.6 13 Noroeste 24 Noroeste 0 1009 0.1 33
2019-06-13 11:00:00 20.1 12 Noroeste 23 Norte 0 1009.2 0.6 44
2019-06-13 10:00:00 17.5 7 Noroeste 27 Noroeste 0 1009.3 0.6 53
2019-06-13 09:00:00 14.7 18 Noroeste 37 Noroeste 0 1008.9 0.5 62
2019-06-13 08:00:00 13.3 16 Noroeste 28 Noroeste 0 1008.6 0.2 64
2019-06-13 07:00:00 13.3 7 Norte 18 Norte 0 1008.7 0.3 61
2019-06-13 06:00:00 14 5 Noroeste 22 Norte 0 1008.4 0 57
2019-06-13 05:00:00 15.1 10 Noroeste 20 Noroeste 0 1008.4 -0.1 52
2019-06-13 04:00:00 16 7 Noroeste 26 Noroeste 0 1008.4 0.1 48
2019-06-13 03:00:00 17.4 12 Noroeste 29 Noroeste 0 1008.4 0.2 44
2019-06-13 02:00:00 18.6 18 Noroeste 28 Noroeste 0 1008.5 0.9 40
2019-06-13 01:00:00 19.4 17 Noroeste 24 Oeste 0 1008.3 1 39
2019-06-13 00:00:00 20.1 15 Oeste 28 Oeste 0 1008.2 1 46
2019-06-12 23:00:00 20 21 Sudoeste 33 Oeste 0 1007.6 0.6 62
2019-06-12 22:00:00 20.3 23 Oeste 36 Oeste 0 1007.3 0.1 70
2019-06-12 21:00:00 22.3 21 Sudoeste 39 Sudoeste 0 1007.2 -0.5 61
2019-06-12 20:00:00 23.7 26 Oeste 41 Oeste 0 1007 -1.1 55
2019-06-12 19:00:00 24.5 27 Sudoeste 37 Oeste 0 1007.2 -1.5 58
2019-06-12 18:00:00 27.4 19 Sudoeste 30 Sudoeste 0 1007.7 -1.6 41
2019-06-12 17:00:00 27.6 21 Sudoeste 29 Oeste 0 1008.1 -2 41
2019-06-12 16:00:00 27 17 Sudoeste 26 Sudoeste 0 1008.7 -1.8 43
2019-06-12 15:00:00 27 14 Sudoeste 27 Oeste 0 1009.3 -1.3 48
2019-06-12 14:00:00 25.9 13 Sudoeste 26 Sur 0 1010.1 -0.6 51
2019-06-12 13:00:00 24.7 12 Sur 28 Sur 0 1010.5 0.1 56
2019-06-12 12:00:00 24.2 13 Sur 23 Sur 0 1010.6 0.4 59
2019-06-12 11:00:00 22.6 13 Sur 23 Sur 0 1010.7 1.4 64
2019-06-12 10:00:00 21 9 Sur 16 Sur 0 1010.4 1.6 68
2019-06-12 09:00:00 17.7 8 Nordeste 14 Este 0 1010.2 1.9 43
2019-06-12 08:00:00 16.3 5 Norte 13 Norte 0 1009.3 0.9 44
2019-06-12 07:00:00 15.8 5 Nordeste 23 Norte 0 1008.8 0.3 49
2019-06-12 06:00:00 17 13 Noroeste 24 Noroeste 0 1008.3 -0.3 49
2019-06-12 05:00:00 17.5 11 Noroeste 21 Noroeste 0 1008.4 -0.6 47
2019-06-12 04:00:00 18 6 Norte 30 Noroeste 0 1008.5 -0.6 45
2019-06-12 03:00:00 18.6 14 Noroeste 26 Noroeste 0 1008.6 -0.4 35
2019-06-12 02:00:00 21 13 Norte 22 Norte 0 1009 0.3 24
2019-06-12 01:00:00 22.3 15 Norte 28 Norte 0 1009.1 1.2 23
2019-06-12 00:00:00 22.8 8 Noroeste 24 Norte 0 1009 1.3 21
2019-06-11 23:00:00 24.9 16 Norte 30 Norte 0 1008.7 1.2 16
2019-06-11 22:00:00 26.2 15 Norte 27 Norte 0 1007.9 0.1 17
2019-06-11 21:00:00 24.9 14 Sudoeste 30 Sudoeste 0 1007.7 -0.5 44
2019-06-11 20:00:00 25.2 22 Sudoeste 36 Oeste 0 1007.5 -1.1 46
2019-06-11 19:00:00 25.3 24 Sudoeste 41 Sudoeste 0 1007.8 -1.2 44
2019-06-11 18:00:00 24.9 27 Sudoeste 41 Sudoeste 0 1008.2 -1.4 48
2019-06-11 17:00:00 25.8 27 Sudoeste 39 Sudoeste 0 1008.6 -1.5 47
2019-06-11 16:00:00 29.2 21 Noroeste 39 Noroeste 0 1009 -1.7 28
2019-06-11 15:00:00 27.7 20 Noroeste 39 Noroeste 0 1009.6 -1.8 31
2019-06-11 14:00:00 26.3 11 Noroeste 27 Oeste 0 1010.1 -1.2 34
2019-06-11 13:00:00 24.5 8 Norte 25 Noroeste 0 1010.7 -0.7 38
2019-06-11 12:00:00 22.4 15 Noroeste 35 Noroeste 0 1011.4 -0.1 44
2019-06-11 11:00:00 20.1 15 Noroeste 42 Noroeste 0 1011.3 -0.1 50
2019-06-11 10:00:00 17.9 14 Noroeste 43 Noroeste 0 1011.4 0.1 57
2019-06-11 09:00:00 16.2 17 Norte 40 Norte 0 1011.5 -0.1 62
2019-06-11 08:00:00 15.2 10 Norte 28 Norte 0 1011.4 -0.2 65
2019-06-11 07:00:00 14.6 8 Norte 35 Noroeste 0 1011.3 -0.7 64
2019-06-11 06:00:00 14.9 5 Norte 32 Oeste 0 1011.6 -0.9 61
2019-06-11 05:00:00 15.4 12 Noroeste 36 Noroeste 0 1011.6 -1.4 57
2019-06-11 04:00:00 16 17 Noroeste 49 Noroeste 0 1012 -1.3 56
2019-06-11 03:00:00 17.4 19 Noroeste 41 Noroeste 0 1012.5 -0.9 50
2019-06-11 02:00:00 19 17 Noroeste 42 Noroeste 0 1013 0.3 43
2019-06-11 01:00:00 20.2 17 Noroeste 36 Noroeste 0 1013.3 1.1 40
2019-06-11 00:00:00 21 18 Noroeste 41 Noroeste 0 1013.4 1.1 41
2019-06-10 23:00:00 20.8 19 Oeste 27 Oeste 0 1012.7 0.2 53
2019-06-10 22:00:00 20.2 23 Oeste 41 Oeste 0 1012.2 -0.8 65
2019-06-10 21:00:00 21.5 30 Oeste 42 Oeste 0 1012.3 -1.2 53
2019-06-10 20:00:00 22.1 30 Oeste 51 Oeste 0 1012.5 -1.3 51
2019-06-10 19:00:00 21.9 37 Sudoeste 56 Sudoeste 0 1013 -1.3 50
2019-06-10 18:00:00 22.3 35 Sudoeste 54 Oeste 0 1013.5 -1.4 50
2019-06-10 17:00:00 23 35 Sudoeste 52 Oeste 0 1013.8 -1.5 50
2019-06-10 16:00:00 23.6 32 Sudoeste 45 Sudoeste 0 1014.3 -1.8 49
2019-06-10 15:00:00 24.5 28 Sudoeste 38 Sudoeste 0 1014.9 -1.5 45
2019-06-10 14:00:00 26.5 11 Noroeste 28 Noroeste 0 1015.3 -1.5 29
2019-06-10 13:00:00 25 13 Noroeste 30 Noroeste 0 1016.1 -1 36
2019-06-10 12:00:00 23 13 Noroeste 31 Noroeste 0 1016.4 -0.5 43
2019-06-10 11:00:00 21.5 8 Norte 24 Oeste 0 1016.8 0 48
2019-06-10 10:00:00 19.5 9 Noroeste 25 Norte 0 1017.1 0.8 58
2019-06-10 09:00:00 17.5 5 Noroeste 18 Noroeste 0 1016.9 0.9 70
2019-06-10 08:00:00 15.2 8 Noroeste 16 Oeste 0 1016.8 0.4 83
2019-06-10 07:00:00 14.7 6 Noroeste 24 Noroeste 0 1016.3 -0.7 84
2019-06-10 06:00:00 15.1 12 Noroeste 30 Oeste 0 1016 -1 82
2019-06-10 05:00:00 15.8 12 Noroeste 23 Noroeste 0 1016.4 -0.8 79
2019-06-10 04:00:00 16.4 12 Noroeste 30 Oeste 0 1017 -0.1 76
2019-06-10 03:00:00 17 17 Noroeste 32 Oeste 0 1017 -0.2 72
2019-06-10 02:00:00 17.7 14 Noroeste 31 Noroeste 0 1017.2 0.2 67
2019-06-10 01:00:00 18.5 21 Noroeste 34 Noroeste 0 1017.1 1.2 62
2019-06-10 00:00:00 19.8 19 Noroeste 35 Noroeste 0 1017.2 2 54
2019-06-09 23:00:00 21.3 21 Noroeste 37 Noroeste 0 1017 1.9 48
2019-06-09 22:00:00 23.3 22 Noroeste 37 Noroeste 0 1015.9 0.9 41
2019-06-09 21:00:00 26 21 Noroeste 33 Noroeste 0 1015.2 0 34
2019-06-09 20:00:00 25.4 19 Sudoeste 40 Oeste 0 1015.1 -0.4 42
2019-06-09 19:00:00 24.7 28 Sudoeste 40 Sudoeste 0 1015 -0.8 41
2019-06-09 18:00:00 24.4 28 Sudoeste 42 Sudoeste 0 1015.2 -1 40
2019-06-09 17:00:00 24.2 31 Sudoeste 42 Sudoeste 0 1015.5 -1.2 38
2019-06-09 16:00:00 24.7 26 Sudoeste 39 Sudoeste 0 1015.8 -1.4 38
2019-06-09 15:00:00 27.2 15 Noroeste 33 Noroeste 0 1016.2 -0.9 21
2019-06-09 14:00:00 26.4 18 Oeste 33 Noroeste 0 1016.7 -0.5 24
2019-06-09 13:00:00 24.6 15 Noroeste 34 Oeste 0 1017.2 -0.3 27
2019-06-09 12:00:00 23 17 Noroeste 37 Noroeste 0 1017.1 -0.3 26
2019-06-09 11:00:00 20.9 14 Noroeste 26 Noroeste 0 1017.2 0.2 29
2019-06-09 10:00:00 18 8 Norte 28 Nordeste 0 1017.5 1.1 42
2019-06-09 09:00:00 15.4 10 Norte 26 Norte 0 1017.4 1.4 51
2019-06-09 08:00:00 14.1 9 Norte 21 Norte 0 1017 1.1 54
2019-06-09 07:00:00 14 8 Oeste 30 Oeste 0 1016.4 0.4 55
2019-06-09 06:00:00 14.7 13 Noroeste 23 Noroeste 0 1016 -0.2 52
2019-06-09 05:00:00 15.7 9 Noroeste 28 Noroeste 0 1015.9 -0.4 49
2019-06-09 04:00:00 16.6 13 Noroeste 28 Oeste 0 1016 -0.3 48
2019-06-09 03:00:00 17.8 11 Noroeste 23 Noroeste 0 1016.2 0.1 48
2019-06-09 02:00:00 19.4 13 Noroeste 26 Noroeste 0 1016.3 1 45
2019-06-09 01:00:00 19.7 15 Noroeste 23 Oeste 0 1016.3 1.6 45
2019-06-09 00:00:00 21.2 14 Noroeste 33 Oeste 0 1016.1 1.9 41
2019-06-08 23:00:00 22.8 19 Oeste 26 Oeste 0 1015.3 1.4 34
2019-06-08 22:00:00 23.6 17 Sudoeste 29 Oeste 0 1014.7 0.8 28
2019-06-08 21:00:00 25.4 18 Oeste 31 Sudoeste 0 1014.2 0.3 24
2019-06-08 20:00:00 26.1 18 Sudoeste 32 Oeste 0 1013.9 -0.2 27
2019-06-08 19:00:00 26 22 Sudoeste 36 Sudoeste 0 1013.9 -0.3 27
2019-06-08 18:00:00 26.8 24 Sudoeste 34 Sudoeste 0 1013.9 -0.6 29
2019-06-08 17:00:00 26.8 26 Sudoeste 36 Sudoeste 0 1014.1 -0.7 28
2019-06-08 16:00:00 30 21 Sudoeste 30 Oeste 0 1014.2 -1.1 21
2019-06-08 15:00:00 30.2 18 Sudoeste 28 Oeste 0 1014.5 -1 19
2019-06-08 14:00:00 29.4 8 Noroeste 22 Oeste 0 1014.8 -0.9 17
2019-06-08 13:00:00 28.1 8 Sudoeste 20 Oeste 0 1015.3 -0.5 20
2019-06-08 12:00:00 26.5 9 Noroeste 19 Noroeste 0 1015.5 -0.4 25
2019-06-08 11:00:00 22.8 8 Norte 19 Noroeste 0 1015.7 -0.2 35
2019-06-08 10:00:00 19.6 10 Noroeste 19 Noroeste 0 1015.8 0.4 44
2019-06-08 09:00:00 16.8 8 Noroeste 19 Noroeste 0 1015.9 0.5 54
2019-06-08 08:00:00 14.9 9 Noroeste 27 Noroeste 0 1015.9 0.6 59
2019-06-08 07:00:00 14.4 11 Noroeste 26 Noroeste 0 1015.4 -0.2 59
2019-06-08 06:00:00 15 10 Noroeste 24 Noroeste 0 1015.4 -0.4 56
2019-06-08 05:00:00 16 8 Noroeste 24 Noroeste 0 1015.3 -0.8 51
2019-06-08 04:00:00 16.8 11 Noroeste 24 Norte 0 1015.6 -0.6 46
2019-06-08 03:00:00 17.7 10 Noroeste 24 Noroeste 0 1015.8 -0.4 41
2019-06-08 02:00:00 18.6 9 Noroeste 21 Noroeste 0 1016.1 0.5 38
2019-06-08 01:00:00 19.5 11 Noroeste 23 Noroeste 0 1016.2 1.1 35
2019-06-08 00:00:00 20.6 6 Noroeste 18 Oeste 0 1016.2 1.7 32
2019-06-07 23:00:00 21 10 Noroeste 23 Oeste 0 1015.6 1.5 31
2019-06-07 22:00:00 22.9 14 Noroeste 33 Noroeste 0 1015.1 0.7 27
2019-06-07 21:00:00 25.4 20 Noroeste 33 Noroeste 0 1014.5 0.1 23
2019-06-07 20:00:00 26.7 19 Noroeste 33 Noroeste 0 1014.1 -0.7 22
2019-06-07 19:00:00 26 15 Sudoeste 27 Norte 0 1014.4 -0.8 38
2019-06-07 18:00:00 27.7 12 Noroeste 26 Nordeste 0 1014.4 -1.3 20
2019-06-07 17:00:00 26.6 12 Noroeste 35 Noroeste 0 1014.8 -1.2 22
2019-06-07 16:00:00 26.4 15 Noroeste 27 Noroeste 0 1015.2 -1.1 23
2019-06-07 15:00:00 24.9 11 Norte 33 Norte 0 1015.7 -0.5 24
2019-06-07 14:00:00 24 12 Nordeste 29 Norte 0 1016 -0.2 28
2019-06-07 13:00:00 22.4 15 Norte 30 Norte 0 1016.3 0.2 34
2019-06-07 12:00:00 21 15 Norte 39 Norte 0 1016.2 0.4 37
2019-06-07 11:00:00 19.2 13 Norte 30 Norte 0 1016.2 1.1 48
2019-06-07 10:00:00 17.8 15 Norte 24 Norte 0 1016.1 2 59
2019-06-07 09:00:00 15.8 7 Norte 18 Noroeste 0 1015.8 2.2 73
2019-06-07 08:00:00 14.1 7 Noroeste 19 Noroeste 0 1015.1 1.9 84
2019-06-07 07:00:00 14.3 9 Noroeste 18 Noroeste 0 1014.1 1.2 81
2019-06-07 06:00:00 14.8 5 Noroeste 21 Nordeste 0 1013.6 0.8 78
2019-06-07 05:00:00 15.7 7 Norte 22 Norte 0 1013.2 0.8 73
2019-06-07 04:00:00 15.9 12 Norte 27 Oeste 0 1012.9 0.6 74
2019-06-07 03:00:00 18.2 17 Oeste 37 Noroeste 0 1012.8 1 76
2019-06-07 02:00:00 18.1 19 Oeste 30 Oeste 0 1012.4 1.1 78
2019-06-07 01:00:00 17.9 22 Oeste 33 Oeste 0 1012.3 1.7 75
2019-06-07 00:00:00 18.3 15 Oeste 29 Oeste 0 1011.8 1.8 66
2019-06-06 23:00:00 18.8 19 Oeste 35 Oeste 0 1011.3 1.4 64
2019-06-06 22:00:00 19.6 23 Oeste 37 Oeste 0 1010.6 0.5 63
2019-06-06 21:00:00 20.1 21 Sudoeste 41 Sudoeste 0 1010 -0.4 64
2019-06-06 20:00:00 20.5 26 Sudoeste 48 Oeste 0 1009.9 -1.2 63
2019-06-06 19:00:00 21.3 32 Sudoeste 52 Oeste 0 1010.1 -1.5 57
2019-06-06 18:00:00 22.2 27 Sudoeste 42 Sudoeste 0 1010.4 -1.5 51
2019-06-06 17:00:00 22.4 27 Sudoeste 45 Sudoeste 0 1011.1 -1 46
2019-06-06 16:00:00 21.8 31 Sudoeste 42 Oeste 0 1011.6 -0.6 38
2019-06-06 15:00:00 23.5 22 Sudoeste 33 Oeste 0 1011.9 -0.6 39
2019-06-06 14:00:00 23.2 19 Sudoeste 32 Sudoeste 0 1012.1 -0.6 36
2019-06-06 13:00:00 22.8 9 Noroeste 23 Noroeste 0 1012.2 -0.9 29
2019-06-06 12:00:00 21.9 7 Oeste 16 Oeste 0 1012.5 -0.9 30
2019-06-06 11:00:00 20.1 7 Oeste 15 Noroeste 0 1012.7 -0.9 38
2019-06-06 10:00:00 17.5 9 Noroeste 20 Noroeste 0 1013.1 -0.4 46
2019-06-06 09:00:00 15 10 Noroeste 15 Noroeste 0 1013.4 0.4 58
2019-06-06 08:00:00 13.6 3 Norte 17 Oeste 0 1013.6 0.5 61
2019-06-06 07:00:00 13.1 8 Noroeste 18 Noroeste 0 1013.5 -0.1 61
2019-06-06 06:00:00 13.6 9 Noroeste 28 Noroeste 0 1013 -0.9 59
2019-06-06 05:00:00 14.5 10 Noroeste 22 Oeste 0 1013.1 -1.1 54
2019-06-06 04:00:00 15.2 12 Noroeste 24 Oeste 0 1013.6 -0.7 50
2019-06-06 03:00:00 15.8 9 Noroeste 29 Noroeste 0 1013.9 -0.3 50
2019-06-06 02:00:00 16.3 15 Noroeste 29 Noroeste 0 1014.2 0.8 51
2019-06-06 01:00:00 17.2 17 Noroeste 35 Noroeste 0 1014.3 1.6 47
2019-06-06 00:00:00 18.5 20 Noroeste 33 Noroeste 0 1014.2 1.6 43
2019-06-05 23:00:00 19.2 17 Oeste 26 Noroeste 0 1013.4 1 42
2019-06-05 22:00:00 21 6 Oeste 24 Sudoeste 0 1012.7 0.1 40
2019-06-05 21:00:00 21.8 17 Sudoeste 33 Sudoeste 0 1012.6 -0.5 51
2019-06-05 20:00:00 22.6 23 Sudoeste 38 Sudoeste 0 1012.4 -1.1 44
2019-06-05 19:00:00 23.2 25 Sudoeste 37 Sudoeste 0 1012.6 -1.1 42
2019-06-05 18:00:00 23.8 24 Sudoeste 41 Sudoeste 0 1013.1 -1.2 43
2019-06-05 17:00:00 26.5 13 Noroeste 39 Oeste 0 1013.5 -1.4 26
2019-06-05 16:00:00 25.3 14 Noroeste 37 Noroeste 0 1013.7 -1.6 29
2019-06-05 15:00:00 24.7 19 Noroeste 42 Oeste 0 1014.3 -1.1 30
2019-06-05 14:00:00 23.6 17 Noroeste 39 Noroeste 0 1014.9 -0.7 33
2019-06-05 13:00:00 22.2 16 Noroeste 38 Noroeste 0 1015.3 -0.4 35
2019-06-05 12:00:00 20.9 17 Noroeste 41 Norte 0 1015.4 0.1 39
2019-06-05 11:00:00 19.4 14 Norte 31 Norte 0 1015.6 0.8 48
2019-06-05 10:00:00 17.9 12 Noroeste 30 Oeste 0 1015.7 1.2 57
2019-06-05 09:00:00 15.9 11 Noroeste 22 Noroeste 0 1015.3 1.4 71
2019-06-05 08:00:00 14.8 12 Noroeste 17 Noroeste 0 1014.8 1.1 76
2019-06-05 07:00:00 14.1 3 Noroeste 15 Noroeste 0 1014.5 1 76
2019-06-05 06:00:00 14.8 10 Noroeste 23 Noroeste 0 1013.9 0.7 72
2019-06-05 05:00:00 15.1 12 Noroeste 21 Noroeste 0 1013.7 0.7 68
2019-06-05 04:00:00 15.7 8 Noroeste 28 Noroeste 0 1013.5 0.9 61
2019-06-05 03:00:00 16.6 13 Noroeste 36 Noroeste 0 1013.2 1.4 55
2019-06-05 02:00:00 17.7 15 Noroeste 35 Noroeste 0 1013 2.4 51
2019-06-05 01:00:00 18.1 17 Oeste 39 Noroeste 0 1012.6 2.7 59
2019-06-05 00:00:00 19.9 27 Noroeste 41 Noroeste 0 1011.8 2.4 54
2019-06-04 23:00:00 22.3 14 Noroeste 30 Oeste 0 1010.6 1.7 52
2019-06-04 22:00:00 23.3 18 Noroeste 41 Noroeste 0 1009.9 0.9 51
2019-06-04 21:00:00 24.1 21 Noroeste 48 Noroeste 0 1009.4 -0.2 50
2019-06-04 20:00:00 24.9 15 Oeste 37 Sudoeste 0 1008.9 -1 54
2019-06-04 19:00:00 25.5 27 Sudoeste 43 Sudoeste 0 1009 -1.4 58
2019-06-04 18:00:00 25.7 27 Sudoeste 42 Sudoeste 0 1009.6 -1.3 54
2019-06-04 17:00:00 25.2 32 Sudoeste 44 Sudoeste 0 1009.9 -1.5 55
2019-06-04 16:00:00 25.4 27 Sudoeste 43 Sudoeste 0 1010.4 -1.5 54
2019-06-04 15:00:00 25.5 26 Sudoeste 41 Sudoeste 0 1010.9 -1.3 56
2019-06-04 14:00:00 28.6 17 Oeste 30 Oeste 0 1011.4 -1.2 40
2019-06-04 13:00:00 26.6 13 Noroeste 27 Noroeste 0 1011.9 -0.9 45
2019-06-04 12:00:00 24.9 17 Noroeste 30 Noroeste 0 1012.2 -0.4 50
2019-06-04 11:00:00 22.1 12 Noroeste 32 Noroeste 0 1012.6 0.5 61
2019-06-04 10:00:00 20.4 19 Noroeste 30 Oeste 0 1012.8 1 71
2019-06-04 09:00:00 18.7 16 Noroeste 29 Oeste 0 1012.6 1.1 79
2019-06-04 08:00:00 16.7 12 Noroeste 19 Noroeste 0 1012.1 0.5 87
2019-06-04 07:00:00 16.5 11 Oeste 16 Oeste 0 1011.8 -0.1 88
2019-06-04 06:00:00 16.8 10 Noroeste 17 Noroeste 0 1011.5 -0.9 86
2019-06-04 05:00:00 17.4 9 Noroeste 15 Noroeste 0 1011.6 -0.9 83
2019-06-04 04:00:00 18 8 Noroeste 19 Noroeste 0 1011.9 -0.9 80
2019-06-04 03:00:00 18.7 11 Noroeste 25 Noroeste 0 1012.4 -0.2 74
2019-06-04 02:00:00 19.8 14 Noroeste 20 Noroeste 0 1012.5 0.3 64
2019-06-04 01:00:00 21.6 15 Noroeste 22 Noroeste 0 1012.8 1.3 44
2019-06-04 00:00:00 22 11 Noroeste 15 Noroeste 0 1012.6 1.2 44
2019-06-03 23:00:00 21.6 3 Sur 12 Sur 0 1012.2 0.6 67
2019-06-03 22:00:00 23 8 Sur 24 Sudoeste 0 1011.5 -0.4 61
2019-06-03 21:00:00 25.6 15 Sudoeste 30 Sudoeste 0 1011.4 -0.9 47
2019-06-03 20:00:00 27.6 17 Sudoeste 36 Sudoeste 0 1011.6 -0.8 39
2019-06-03 19:00:00 27.9 23 Sudoeste 33 Sudoeste 0 1011.9 -1 35
2019-06-03 18:00:00 28.2 23 Sudoeste 36 Sudoeste 0 1012.3 -1.1 35
2019-06-03 17:00:00 29 22 Sudoeste 32 Sudoeste 0 1012.4 -1.5 31
2019-06-03 16:00:00 29.7 22 Sudoeste 31 Sudoeste 0 1012.9 -1.2 34
2019-06-03 15:00:00 30.6 23 Sur 33 Sur 0 1013.4 -1.1 33
2019-06-03 14:00:00 31.4 18 Sur 25 Sur 0 1013.9 -0.8 34
2019-06-03 13:00:00 32.3 6 Sur 12 Sur 0 1014.1 -0.5 25
2019-06-03 12:00:00 29.5 5 Este 10 Este 0 1014.5 0.2 29
2019-06-03 11:00:00 25.8 5 Oeste 11 Noroeste 0 1014.7 0.3 43
2019-06-03 10:00:00 21.9 2 Este 10 Norte 0 1014.6 0.3 55
2019-06-03 09:00:00 18.7 6 Norte 14 Norte 0 1014.3 0.1 62
2019-06-03 08:00:00 17.4 3 Nordeste 8 Nordeste 0 1014.4 0 69
2019-06-03 07:00:00 15.7 5 Nordeste 10 Nordeste 0 1014.3 -0.2 74
2019-06-03 06:00:00 17.2 5 Nordeste 7 Nordeste 0 1014.2 -0.5 68
2019-06-03 05:00:00 17.8 4 Nordeste 11 Oeste 0 1014.4 -0.3 65
2019-06-03 04:00:00 20.6 9 Sudoeste 15 Oeste 0 1014.5 -0.3 55
2019-06-03 03:00:00 21 7 Sudoeste 16 Sudoeste 0 1014.7 -0.2 54
2019-06-03 02:00:00 22.1 13 Oeste 24 Sudoeste 0 1014.7 0.2 47
2019-06-03 01:00:00 22.6 13 Sudoeste 22 Sudoeste 0 1014.8 0.9 48
2019-06-03 00:00:00 22.5 13 Sudoeste 24 Sudoeste 0 1014.9 1.4 53
2019-06-02 23:00:00 22.9 16 Sudoeste 29 Sudoeste 0 1014.5 1.5 52
2019-06-02 22:00:00 23.5 19 Sudoeste 30 Oeste 0 1013.9 1 51
2019-06-02 21:00:00 25.5 21 Sudoeste 34 Sudoeste 0 1013.5 0.6 40
2019-06-02 20:00:00 27.4 19 Sudoeste 28 Sudoeste 0 1013 -0.2 39
2019-06-02 19:00:00 30.1 18 Sur 34 Sur 0 1012.9 -0.6 27
2019-06-02 18:00:00 30.6 23 Sur 33 Sur 0 1012.9 -0.9 22
2019-06-02 17:00:00 30.8 24 Sur 33 Sur 0 1013.2 -1.2 23
2019-06-02 16:00:00 31 22 Sur 30 Sur 0 1013.5 -1.5 28
2019-06-02 15:00:00 32.1 20 Sur 32 Sur 0 1013.8 -1.5 25
2019-06-02 14:00:00 33.1 10 Sur 22 Sur 0 1014.4 -1.1 24
2019-06-02 13:00:00 31.5 9 Nordeste 17 Este 0 1015 -0.6 21
2019-06-02 12:00:00 29.8 7 Este 17 Sudeste 0 1015.3 -0.2 24
2019-06-02 11:00:00 27.2 6 Este 12 Este 0 1015.5 0.2 27
2019-06-02 10:00:00 23.3 8 Nordeste 15 Este 0 1015.6 0.6 39
2019-06-02 09:00:00 19.1 8 Nordeste 12 Nordeste 0 1015.5 0.8 54
2019-06-02 08:00:00 16.6 5 Nordeste 8 Nordeste 0 1015.3 0.4 61
2019-06-02 07:00:00 16.3 4 Norte 8 Norte 0 1015 -0.1 60
2019-06-02 06:00:00 16.5 4 Norte 9 Nordeste 0 1014.7 -0.7 60
2019-06-02 05:00:00 17.1 6 Nordeste 12 Nordeste 0 1014.9 -0.6 59
2019-06-02 04:00:00 17.1 8 Nordeste 10 Nordeste 0 1015.1 -0.3 64
2019-06-02 03:00:00 18 5 Nordeste 9 Nordeste 0 1015.4 0 62
2019-06-02 02:00:00 19.4 7 Oeste 14 Oeste 0 1015.5 0.7 61
2019-06-02 01:00:00 20.6 9 Oeste 17 Oeste 0 1015.4 1.5 55
2019-06-02 00:00:00 21.1 11 Oeste 19 Noroeste 0 1015.4 1.8 53
2019-06-01 23:00:00 22.3 12 Oeste 19 Oeste 0 1014.8 1.6 50
2019-06-01 22:00:00 23.7 10 Sudoeste 18 Sudoeste 0 1013.9 0.4 44
2019-06-01 21:00:00 25.7 12 Sudoeste 23 Sur 0 1013.6 0.1 41
2019-06-01 20:00:00 27.3 17 Sudoeste 27 Sur 0 1013.2 -0.7 36
2019-06-01 19:00:00 28.9 18 Sudoeste 30 Sudoeste 0 1013.5 -0.8 32
2019-06-01 18:00:00 29.8 18 Sudoeste 32 Sudoeste 0 1013.5 -0.9 27
2019-06-01 17:00:00 30.1 19 Sudoeste 28 Sudoeste 0 1013.9 -1.1 27
2019-06-01 16:00:00 31.5 21 Sur 31 Sur 0 1014.3 -1.3 24
2019-06-01 15:00:00 32.4 20 Sur 29 Sudoeste 0 1014.4 -1.4 25
2019-06-01 14:00:00 32.8 16 Este 28 Este 0 1015 -1.1 18
2019-06-01 13:00:00 30.8 14 Este 25 Este 0 1015.6 -0.5 25
2019-06-01 12:00:00 28.7 13 Este 26 Este 0 1015.8 -0.2 28
2019-06-01 11:00:00 26.9 12 Nordeste 22 Este 0 1016.1 0.3 32
2019-06-01 10:00:00 23.7 12 Nordeste 24 Este 0 1016.1 0.7 39
2019-06-01 09:00:00 19.2 6 Nordeste 12 Nordeste 0 1016 0.7 50
2019-06-01 08:00:00 16.2 2 Nordeste 18 Norte 0 1015.8 0.4 58
2019-06-01 07:00:00 16.1 10 Norte 18 Norte 0 1015.4 -0.1 57
2019-06-01 06:00:00 16.5 5 Nordeste 9 Nordeste 0 1015.3 -0.4 55
2019-06-01 05:00:00 17.1 5 Nordeste 10 Nordeste 0 1015.4 -0.8 55
2019-06-01 04:00:00 18.2 8 Nordeste 10 Nordeste 0 1015.5 -0.8 51
2019-06-01 03:00:00 19.6 7 Nordeste 18 Norte 0 1015.7 -0.4 49
2019-06-01 02:00:00 21.1 9 Noroeste 17 Noroeste 0 1016.2 0.8 52
2019-06-01 01:00:00 21.1 9 Noroeste 15 Noroeste 0 1016.3 1.7 54
2019-06-01 00:00:00 21.1 6 Norte 9 Nordeste 0 1016.1 1.9 53
2019-05-31 23:00:00 22.1 3 Oeste 13 Oeste 0 1015.4 1.4 51
2019-05-31 22:00:00 23.8 9 Oeste 14 Sudoeste 0 1014.6 0.4 45
2019-05-31 21:00:00 26.4 10 Oeste 19 Sudoeste 0 1014.2 -0.4 40
2019-05-31 20:00:00 27.9 14 Sudoeste 21 Sudoeste 0 1014 -0.9 35
2019-05-31 19:00:00 29.2 15 Sudoeste 27 Sudoeste 0 1014.2 -0.6 29
2019-05-31 18:00:00 30.2 17 Sudoeste 27 Sudoeste 0 1014.6 -0.7 27
2019-05-31 17:00:00 31.2 18 Sudoeste 29 Sur 0 1014.9 -0.9 29
2019-05-31 16:00:00 33.1 15 Sudoeste 28 Sur 0 1014.8 -1.4 21
2019-05-31 15:00:00 32.2 12 Sudoeste 34 Este 0 1015.3 -1.1 24
2019-05-31 14:00:00 32 15 Este 34 Este 0 1015.8 -0.9 22
2019-05-31 13:00:00 30.1 18 Este 31 Este 0 1016.2 -0.6 26
2019-05-31 12:00:00 28.5 17 Este 39 Este 0 1016.4 -0.5 26
2019-05-31 11:00:00 26.6 18 Este 28 Este 0 1016.7 -0.2 29
2019-05-31 10:00:00 24.5 14 Este 25 Este 0 1016.8 0.3 33
2019-05-31 09:00:00 20.7 7 Nordeste 12 Nordeste 0 1016.9 0.5 45
2019-05-31 08:00:00 18.1 7 Nordeste 14 Nordeste 0 1016.9 0.3 51
2019-05-31 07:00:00 16.7 6 Norte 12 Norte 0 1016.5 -0.5 58
2019-05-31 06:00:00 17.2 5 Nordeste 12 Norte 0 1016.4 -1 57
2019-05-31 05:00:00 17 5 Norte 10 Norte 0 1016.6 -1.3 60
2019-05-31 04:00:00 17.7 3 Norte 10 Norte 0 1017 -0.9 52
2019-05-31 03:00:00 19.4 5 Nordeste 8 Norte 0 1017.4 -0.6 44
2019-05-31 02:00:00 20.4 5 Nordeste 12 Este 0 1017.9 0.5 40
2019-05-31 01:00:00 20.2 5 Nordeste 13 Nordeste 0 1017.9 1.5 52
2019-05-31 00:00:00 20.9 0 Calma 12 Sudeste 0 1018 2.3 58
2019-05-30 23:00:00 21.8 8 Sudeste 19 Sudeste 0 1017.4 2.1 55
2019-05-30 22:00:00 23.1 7 Sudoeste 24 Sur 0 1016.4 0.7 55
2019-05-30 21:00:00 25.1 18 Sur 29 Sur 0 1015.7 -0.4 47
2019-05-30 20:00:00 27.3 20 Sur 31 Sur 0 1015.3 -0.9 36
2019-05-30 19:00:00 28.7 18 Sur 28 Sur 0 1015.7 -0.4 36
2019-05-30 18:00:00 29.9 17 Sudoeste 28 Sur 0 1016.1 -0.4 34
2019-05-30 17:00:00 30.5 18 Sudoeste 33 Sur 0 1016.2 -0.9 32
2019-05-30 16:00:00 32.8 17 Sudeste 33 Este 0 1016.1 -1.5 27
2019-05-30 15:00:00 31.9 14 Este 32 Nordeste 0 1016.5 -1.2 25
2019-05-30 14:00:00 30.4 19 Este 33 Este 0 1017.1 -0.9 28
2019-05-30 13:00:00 28.8 16 Este 35 Este 0 1017.6 -0.3 32
2019-05-30 12:00:00 26.8 18 Este 34 Este 0 1017.7 -0.2 36
2019-05-30 11:00:00 25 14 Este 24 Este 0 1018 0.5 41
2019-05-30 10:00:00 22.5 14 Nordeste 26 Nordeste 0 1017.9 0.8 49
2019-05-30 09:00:00 19.8 9 Nordeste 19 Este 0 1017.9 1.1 61
2019-05-30 08:00:00 16.8 6 Nordeste 12 Nordeste 0 1017.5 0.9 69
2019-05-30 07:00:00 15.3 8 Nordeste 12 Nordeste 0 1017.1 0.5 79
2019-05-30 06:00:00 16.4 5 Nordeste 8 Nordeste 0 1016.8 0.2 75
2019-05-30 05:00:00 16.6 4 Nordeste 8 Nordeste 0 1016.6 0 74
2019-05-30 04:00:00 17.5 4 Nordeste 11 Noroeste 0 1016.6 0.1 73
2019-05-30 03:00:00 18 5 Noroeste 9 Noroeste 0 1016.6 0.4 74
2019-05-30 02:00:00 19.6 5 Oeste 11 Oeste 0 1016.6 1 70
2019-05-30 01:00:00 20.1 8 Oeste 12 Oeste 0 1016.5 1.9 64
2019-05-30 00:00:00 20.7 8 Oeste 14 Oeste 0 1016.2 2.4 62
2019-05-29 23:00:00 21.9 9 Oeste 17 Oeste 0 1015.6 2.4 58
2019-05-29 22:00:00 23.2 8 Sudoeste 17 Sudoeste 0 1014.6 1.5 52
2019-05-29 21:00:00 25.3 10 Sudoeste 23 Sudoeste 0 1013.8 0.6 47
2019-05-29 20:00:00 27.3 15 Sudoeste 27 Sur 0 1013.2 -0.3 41
2019-05-29 19:00:00 28.3 17 Sudoeste 30 Sur 0 1013.1 -0.5 38
2019-05-29 18:00:00 29.3 21 Sur 33 Sur 0 1013.2 -0.7 35
2019-05-29 17:00:00 31.5 20 Sur 30 Sur 0 1013.5 -1 32
2019-05-29 16:00:00 32.7 17 Sudoeste 24 Sur 0 1013.6 -1.1 30
2019-05-29 15:00:00 32.5 13 Sudoeste 28 Sur 0 1013.9 -0.7 30
2019-05-29 14:00:00 31.6 13 Sur 33 Nordeste 0 1014.5 -0.2 31
2019-05-29 13:00:00 30.8 15 Este 35 Este 0 1014.7 0.2 25
2019-05-29 12:00:00 29.1 21 Este 39 Este 0 1014.6 0.6 27
2019-05-29 11:00:00 27.5 26 Este 49 Este 0 1014.7 1.2 25
2019-05-29 10:00:00 26 21 Este 34 Este 0 1014.5 2.1 29
2019-05-29 09:00:00 20.6 4 Nordeste 10 Este 0 1014 2.3 71
2019-05-29 08:00:00 17.6 6 Sudeste 13 Sudeste 0 1013.5 2.3 77
2019-05-29 07:00:00 18.4 6 Este 13 Nordeste 0 1012.4 1 63
2019-05-29 06:00:00 16.9 8 Nordeste 13 Nordeste 0 1011.7 0.8 70
2019-05-29 05:00:00 17.8 3 Sudoeste 15 Noroeste 0 1011.2 0.1 70
2019-05-29 04:00:00 17.8 5 Este 12 Este 0 1011.4 0.4 68
2019-05-29 03:00:00 19.5 4 Nordeste 9 Noroeste 0 1010.9 0.1 64
2019-05-29 02:00:00 19.1 5 Noroeste 8 Noroeste 0 1011.1 1 67
2019-05-29 01:00:00 20 2 Nordeste 10 Nordeste 0 1011 1.3 65
2019-05-29 00:00:00 21.5 8 Nordeste 12 Nordeste 0 1010.8 1.5 62
2019-05-28 23:00:00 22.3 4 Sur 15 Sur 0 1010.1 1.1 61
2019-05-28 22:00:00 24.3 7 Sur 24 Sudoeste 0 1009.7 0.5 51
2019-05-28 21:00:00 25.5 13 Sudoeste 29 Sudoeste 0 1009.3 0.2 49
2019-05-28 20:00:00 25.9 18 Sudoeste 30 Sudoeste 0 1009 0 49
2019-05-28 19:00:00 26.5 19 Sudoeste 40 Sudoeste 0 1009.2 0 47
2019-05-28 18:00:00 27.7 22 Sudoeste 36 Sudoeste 0 1009.1 -0.4 44
2019-05-28 17:00:00 29.4 21 Sudoeste 34 Sudoeste 0 1009 -0.5 41
2019-05-28 16:00:00 31.4 19 Sudoeste 29 Sudoeste 0 1009.2 -0.7 35
2019-05-28 15:00:00 32.3 18 Sudoeste 28 Sudoeste 0 1009.5 -0.4 33
2019-05-28 14:00:00 32.8 7 Norte 24 Este 0 1009.5 -0.3 31
2019-05-28 13:00:00 30.9 5 Norte 15 Oeste 0 1009.9 0 33
2019-05-28 12:00:00 28.6 6 Norte 14 Oeste 0 1009.9 0.2 38
2019-05-28 11:00:00 25.3 7 Noroeste 21 Noroeste 0 1009.8 0.5 48
2019-05-28 10:00:00 21.5 8 Norte 19 Noroeste 0 1009.9 0.9 60
2019-05-28 09:00:00 18.7 7 Norte 19 Norte 0 1009.7 1.1 69
2019-05-28 08:00:00 16.7 7 Norte 25 Norte 0 1009.3 0.6 76
2019-05-28 07:00:00 16.2 5 Norte 20 Nordeste 0 1009 -0.2 76
2019-05-28 06:00:00 16.9 6 Noroeste 19 Oeste 0 1008.6 -0.7 74
2019-05-28 05:00:00 17.7 6 Norte 31 Noroeste 0 1008.7 -0.8 71
2019-05-28 04:00:00 18.9 5 Noroeste 22 Oeste 0 1009.2 -0.3 67
2019-05-28 03:00:00 20.7 7 Oeste 31 Noroeste 0 1009.3 -0.3 61
2019-05-28 02:00:00 22.5 8 Noroeste 30 Noroeste 0 1009.5 0.7 53
2019-05-28 01:00:00 24.4 14 Noroeste 33 Noroeste 0 1009.5 1.4 46
2019-05-28 00:00:00 26.1 14 Noroeste 27 Noroeste 0 1009.6 1.7 44
2019-05-27 23:00:00 26 13 Noroeste 19 Noroeste 0 1008.8 0.9 46
2019-05-27 22:00:00 26 13 Oeste 28 Sudoeste 0 1008.1 0 45
2019-05-27 21:00:00 27.5 21 Sudoeste 40 Sudoeste 0 1007.9 -0.5 39
2019-05-27 20:00:00 28.7 26 Sudoeste 37 Oeste 0 1007.9 -1 39
2019-05-27 19:00:00 28.3 25 Sudoeste 39 Sudoeste 0 1008.1 -1.2 38
2019-05-27 18:00:00 26.9 24 Sudoeste 45 Sudoeste 0 1008.4 -1.5 48
2019-05-27 17:00:00 26.8 28 Sudoeste 40 Sudoeste 0 1008.9 -1.5 45
2019-05-27 16:00:00 29.2 22 Sudoeste 32 Sudoeste 0 1009.3 -1.5 43
2019-05-27 15:00:00 31.2 21 Sudoeste 30 Sur 0 1009.9 -- 35
2019-05-27 14:00:00 31.4 19 Sur 27 Sur 0 1010.4 -1.1 36
2019-05-27 13:00:00 31.2 6 Sudoeste 17 Sur 0 1010.8 -0.9 30
2019-05-27 12:00:00 28.8 4 Este 10 Nordeste 0 -- -- 34
2019-05-27 11:00:00 25.4 3 Noroeste 12 Norte 0 1011.5 0.4 45
2019-05-27 10:00:00 21.7 5 Nordeste 9 Norte 0 1011.7 0.9 57
2019-05-27 09:00:00 18.1 6 Nordeste 10 Nordeste 0 1011.4 0.6 64
2019-05-27 08:00:00 14.9 6 Nordeste 9 Nordeste 0 1011.1 0.2 75
2019-05-27 07:00:00 13.8 0 Calma 9 Nordeste 0 1010.8 -0.4 78
2019-05-27 06:00:00 15 5 Nordeste 9 Nordeste 0 1010.8 -0.8 78
2019-05-27 05:00:00 15.6 5 Nordeste 7 Nordeste 0 1010.9 -1.1 78
2019-05-27 04:00:00 16.6 0 Calma 5 Sur 0 1011.2 -1.2 84
2019-05-27 03:00:00 16.9 2 Sur 7 Este 0 1011.6 -0.8 81
2019-05-27 02:00:00 17.4 3 Sudeste 15 Noroeste 0 1012 -0.2 75
2019-05-27 01:00:00 18.5 5 Norte 9 Nordeste 0 1012.4 0.7 70
2019-05-27 00:00:00 19.8 5 Oeste 15 Sudoeste 0 1012.4 0.9 61
2019-05-26 23:00:00 20.6 8 Sudoeste 20 Sudoeste 0 1012.2 0.7 59
2019-05-26 22:00:00 21.3 12 Sudoeste 27 Oeste 0 1011.7 0.1 54
2019-05-26 21:00:00 23.1 15 Sudoeste 32 Sudoeste 0 1011.5 -0.4 45
2019-05-26 20:00:00 24.5 22 Sudoeste 36 Oeste 0 1011.5 -0.7 40
2019-05-26 19:00:00 26.2 22 Sudoeste 36 Sudoeste 0 1011.6 -1 38
2019-05-26 18:00:00 26.7 23 Sudoeste 36 Sudoeste 0 1011.9 -1.3 37
2019-05-26 17:00:00 27.8 23 Sudoeste 33 Sudoeste 0 1012.2 -1.8 36
2019-05-26 16:00:00 28.5 20 Sudoeste 31 Sudoeste 0 1012.6 -2.1 34
2019-05-26 15:00:00 28.5 17 Sudoeste 27 Sudoeste 0 1013.2 -1.8 35
2019-05-26 14:00:00 27.8 16 Sudoeste 24 Sudoeste 0 1014 -1.1 36
2019-05-26 13:00:00 26.7 9 Sudoeste 19 Sudoeste 0 1014.7 -0.4 38
2019-05-26 12:00:00 25.3 9 Sudoeste 19 Sudoeste 0 1015 -0.2 42
2019-05-26 11:00:00 23.6 9 Sur 17 Sur 0 1015.1 0.4 51
2019-05-26 10:00:00 21 4 Noroeste 9 Noroeste 0 1015.1 0.8 67
2019-05-26 09:00:00 17.4 4 Nordeste 10 Nordeste 0 1015.2 1.1 72
2019-05-26 08:00:00 15 6 Nordeste 9 Norte 0 1014.7 0.6 80
2019-05-26 07:00:00 14.3 5 Nordeste 13 Nordeste 0 1014.3 0.1 84
2019-05-26 06:00:00 15.1 5 Nordeste 8 Nordeste 0 1014.1 -0.1 79
2019-05-26 05:00:00 15.5 5 Nordeste 10 Nordeste 0 1014.1 -0.1 78
2019-05-26 04:00:00 16.3 5 Nordeste 9 Nordeste 0 1014.2 0 78
2019-05-26 03:00:00 17.1 5 Nordeste 10 Sur 0 1014.2 0.1 80
2019-05-26 02:00:00 17.6 5 Sudoeste 14 Sur 0 1014.2 0.6 80
2019-05-26 01:00:00 18.4 4 Sur 15 Sur 0 1014.2 1.2 74
2019-05-26 00:00:00 19.7 12 Sur 16 Sur 0 1014.1 1.4 70
2019-05-25 23:00:00 21.6 9 Oeste 19 Sudoeste 0 1013.6 1.3 57
2019-05-25 22:00:00 22.6 12 Sudoeste 20 Oeste 0 1013 0.8 54
2019-05-25 21:00:00 23.9 14 Sudoeste 26 Oeste 0 1012.7 0.8 53
2019-05-25 20:00:00 24.6 19 Sudoeste 32 Sudoeste 0 1012.3 0.3 49
2019-05-25 19:00:00 24.6 22 Sudoeste 32 Sudoeste 0 1012.2 -0.5 57
2019-05-25 18:00:00 27.7 18 Sur 30 Sudoeste 0 1011.9 -1.4 45
2019-05-25 17:00:00 27.8 21 Sudoeste 31 Sudoeste 0 1012 -1.7 43
2019-05-25 16:00:00 27.4 21 Sudoeste 30 Sudoeste 0 1012.7 -1.4 46
2019-05-25 15:00:00 28.1 18 Sudoeste 30 Oeste 0 1013.3 -0.9 44
2019-05-25 14:00:00 27.4 17 Sudoeste 28 Sudoeste 0 1013.7 -0.5 48
2019-05-25 13:00:00 26.4 8 Este 17 Este 0 1014.1 0 43
2019-05-25 12:00:00 24.5 9 Noroeste 15 Noroeste 0 1014.2 0.5 55
2019-05-25 11:00:00 22.6 8 Noroeste 15 Sudoeste 0 1014.2 0.8 63
2019-05-25 10:00:00 21.1 5 Sur 12 Sur 0 1014.1 1.8 71
2019-05-25 09:00:00 19.3 5 Nordeste 10 Nordeste 0 1013.7 2.2 79
2019-05-25 08:00:00 17.2 4 Nordeste 12 Nordeste 0 1013.4 2.7 87
2019-05-25 07:00:00 17.3 6 Este 13 Este 0 1012.3 2.3 89
2019-05-25 06:00:00 16.8 8 Este 23 Sudeste 0 1011.5 1.6 90
2019-05-25 05:00:00 18.8 7 Nordeste 24 Norte 0 1010.7 0.7 51
2019-05-25 04:00:00 20.7 9 Norte 22 Norte 0 1010 -0.1 47
2019-05-25 03:00:00 21.2 6 Norte 21 Oeste 0 1009.9 0.1 48
2019-05-25 02:00:00 22.1 11 Noroeste 23 Noroeste 0 1010 0.7 45
2019-05-25 01:00:00 23.4 9 Noroeste 25 Noroeste 0 1010.1 1.5 40
2019-05-25 00:00:00 24 11 Noroeste 22 Noroeste 0 1009.8 1.8 33
2019-05-24 23:00:00 22.9 6 Noroeste 10 Oeste 0 1009.3 1.5 35
2019-05-24 22:00:00 22.9 5 Sudeste 9 Sur 0 1008.6 0.6 54
2019-05-24 21:00:00 24.5 6 Sur 13 Sur 0 1008 -0.5 47
2019-05-24 20:00:00 26.7 9 Sur 19 Sudeste 0 1007.8 -1 42
2019-05-24 19:00:00 29.9 15 Este 34 Norte 0 1008 -1.6 31
2019-05-24 18:00:00 30.9 12 Noroeste 35 Oeste 0 1008.5 -1.9 21
2019-05-24 17:00:00 30.6 17 Noroeste 36 Noroeste 0 1008.8 -1.9 22
2019-05-24 16:00:00 29 14 Noroeste 38 Noroeste 0 1009.6 -2 24
2019-05-24 15:00:00 27.7 17 Noroeste 37 Noroeste 0 1010.4 -1.6 26
2019-05-24 14:00:00 26.9 14 Noroeste 41 Noroeste 0 1010.7 -1.7 28
2019-05-24 13:00:00 26.1 15 Norte 33 Oeste 0 1011.6 -0.7 29
2019-05-24 12:00:00 23.2 18 Norte 35 Norte 0 1012 -0.5 37
2019-05-24 11:00:00 20.7 15 Norte 38 Norte 0 1012.4 0 49
2019-05-24 10:00:00 17.8 10 Norte 27 Nordeste 0 1012.3 -0.3 59
2019-05-24 09:00:00 15.4 13 Noroeste 31 Oeste 0 1012.5 0.1 69
2019-05-24 08:00:00 14.1 9 Noroeste 23 Noroeste 0 1012.4 -0.5 73
2019-05-24 07:00:00 14 8 Noroeste 33 Noroeste 0 1012.6 -0.1 71
2019-05-24 06:00:00 15 16 Noroeste 37 Noroeste 0 1012.4 -1 66
2019-05-24 05:00:00 16 7 Norte 39 Oeste 0 1012.9 -1 63
2019-05-24 04:00:00 17.4 19 Noroeste 39 Noroeste 0 1012.7 -1.3 59
2019-05-24 03:00:00 19.1 9 Noroeste 28 Noroeste 0 1013.4 -0.5 64
2019-05-24 02:00:00 20.5 14 Noroeste 31 Oeste 0 1013.9 0.6 63
2019-05-24 01:00:00 21.7 14 Noroeste 33 Noroeste 0 1014 1.2 59
2019-05-24 00:00:00 23.1 19 Noroeste 38 Noroeste 0 1013.9 1.4 52
2019-05-23 23:00:00 24.4 13 Noroeste 22 Oeste 0 1013.3 1 36
2019-05-23 22:00:00 24.6 9 Noroeste 18 Oeste 0 1012.8 0.2 37
2019-05-23 21:00:00 25.8 15 Oeste 33 Oeste 0 1012.5 -0.4 37
2019-05-23 20:00:00 26.5 18 Sudoeste 35 Oeste 0 1012.3 -1 36
2019-05-23 19:00:00 26.9 20 Sudoeste 36 Sudoeste 0 1012.6 -0.7 36
2019-05-23 18:00:00 27.7 24 Sudoeste 39 Sudoeste 0 1012.9 -0.9 36
2019-05-23 17:00:00 28.7 22 Sudoeste 34 Sudoeste 0 1013.3 -1.2 39
2019-05-23 16:00:00 31.9 21 Sudoeste 31 Oeste 0 1013.3 -1.7 26
2019-05-23 15:00:00 32 11 Noroeste 26 Oeste 0 1013.8 -1.4 23
2019-05-23 14:00:00 31.5 12 Oeste 26 Oeste 0 1014.5 -0.7 27
2019-05-23 13:00:00 29.8 10 Noroeste 17 Oeste 0 1015 -0.2 30
2019-05-23 12:00:00 28.4 5 Oeste 17 Nordeste 0 1015.2 0.3 37
2019-05-23 11:00:00 26.3 7 Nordeste 14 Nordeste 0 1015.2 0.5 43
2019-05-23 10:00:00 22.1 8 Norte 14 Norte 0 1015.2 0.7 56
2019-05-23 09:00:00 19.6 10 Norte 21 Norte 0 1014.9 0.3 64
2019-05-23 08:00:00 17.2 7 Norte 19 Norte 0 1014.7 0.2 71
2019-05-23 07:00:00 17.5 10 Noroeste 24 Noroeste 0 1014.5 0.2 69
2019-05-23 06:00:00 18.4 4 Norte 14 Noroeste 0 1014.6 0.1 66
2019-05-23 05:00:00 18.9 6 Noroeste 14 Noroeste 0 1014.5 -0.3 64
2019-05-23 04:00:00 18.8 9 Noroeste 17 Noroeste 0 1014.3 -0.6 64
2019-05-23 03:00:00 19.1 6 Noroeste 17 Noroeste 0 1014.5 -0.2 60
2019-05-23 02:00:00 20.4 8 Noroeste 18 Noroeste 0 1014.8 0.4 53
2019-05-23 01:00:00 20.4 10 Noroeste 17 Norte 0 1014.9 1 54
2019-05-23 00:00:00 19.9 10 Noroeste 16 Noroeste 0 1014.7 1.3 56
2019-05-22 23:00:00 20.9 7 Oeste 12 Oeste 0 1014.4 1.1 52
2019-05-22 22:00:00 22.3 10 Oeste 17 Oeste 0 1013.9 0.6 49
2019-05-22 21:00:00 25.3 8 Sudoeste 19 Sudoeste 0 1013.4 -0.4 38
2019-05-22 20:00:00 26.6 13 Sudoeste 24 Oeste 0 1013.3 -0.8 34
2019-05-22 19:00:00 26.8 13 Sudoeste 26 Sudoeste 0 1013.3 -0.9 34
2019-05-22 18:00:00 25.4 20 Sudoeste 29 Sudoeste 0 1013.8 -0.9 44
2019-05-22 17:00:00 26.4 19 Sudoeste 27 Sudoeste 0 1014.1 -1 43
2019-05-22 16:00:00 27.2 19 Sur 27 Sur 0 1014.2 -1 39
2019-05-22 15:00:00 26.2 18 Sur 29 Sur 0 1014.7 -0.3 44
2019-05-22 14:00:00 25.5 18 Sur 30 Sur 0 1015.1 0.3 44
2019-05-22 13:00:00 25.5 15 Sur 26 Sur 0 1015.2 0.5 46
2019-05-22 12:00:00 24 17 Sur 26 Sur 0 1015 0.8 48
2019-05-22 11:00:00 22.5 9 Sur 15 Sudeste 0 1014.8 0.9 55
2019-05-22 10:00:00 19.9 8 Nordeste 13 Nordeste 0 1014.7 1.3 66
2019-05-22 09:00:00 17.2 7 Nordeste 18 Norte 0 1014.2 1.3 72
2019-05-22 08:00:00 15 9 Noroeste 14 Norte 0 1013.9 0.9 80
2019-05-22 07:00:00 14.9 6 Noroeste 13 Noroeste 0 1013.4 0.3 81
2019-05-22 06:00:00 15 5 Norte 18 Nordeste 0 1012.9 -0.7 81
2019-05-22 05:00:00 15.5 8 Norte 18 Nordeste 0 1013 -0.7 78
2019-05-22 04:00:00 15.9 6 Noroeste 17 Noroeste 0 1013.1 -0.7 77
2019-05-22 03:00:00 16.6 5 Noroeste 28 Noroeste 0 1013.6 -0.1 74
2019-05-22 02:00:00 17.5 16 Noroeste 31 Norte 0 1013.7 0.7 71
2019-05-22 01:00:00 18.6 16 Noroeste 27 Noroeste 0 1013.8 1.5 64
2019-05-22 00:00:00 19.2 12 Noroeste 22 Oeste 0 1013.7 1.7 60